Time;durP1;ratioP1;P1;durP2;ratioP2;P2;SDS_P1;SDS_P2;PMS_P1;PMS_P2;Temp;Humidity;BMP_temperature;BMP_pressure;BME280_temperature;BME280_humidity;BME280_pressure;Samples;Min_cycle;Max_cycle;Signal;HPM_P1;HPM_P2
2022/05/16 00:01:51;;;;;;;2.37;2.10;;;21.10;37.30;;;;;;20456;6863;289852;-74
2022/05/16 00:04:16;;;;;;;2.10;2.00;;;21.10;37.30;;;;;;20431;6863;308287;-74
2022/05/16 00:06:42;;;;;;;2.47;1.90;;;21.40;37.50;;;;;;20665;6863;117361;-74
2022/05/16 00:09:07;;;;;;;3.73;1.90;;;21.20;37.50;;;;;;20661;6863;117467;-74
2022/05/16 00:11:33;;;;;;;2.20;2.00;;;20.80;37.60;;;;;;20452;6863;278372;-75
2022/05/16 00:13:58;;;;;;;2.43;2.00;;;20.90;37.50;;;;;;20462;6863;307415;-74
2022/05/16 00:16:24;;;;;;;2.30;2.10;;;21.10;37.30;;;;;;20447;6863;288592;-74
2022/05/16 00:18:51;;;;;;;2.20;1.90;;;21.30;36.90;;;;;;20452;6863;337316;-74
2022/05/16 00:21:16;;;;;;;3.17;2.50;;;21.40;36.80;;;;;;20440;6863;307446;-74
2022/05/16 00:23:41;;;;;;;2.20;2.10;;;21.40;36.60;;;;;;20451;6863;282079;-74
2022/05/16 00:26:08;;;;;;;3.80;2.10;;;21.20;37.20;;;;;;20660;6863;117884;-75
2022/05/16 00:28:34;;;;;;;2.57;2.10;;;21.20;36.70;;;;;;20284;6863;278813;-74
2022/05/16 00:31:00;;;;;;;2.30;2.20;;;21.20;37.50;;;;;;20448;6863;281148;-74
2022/05/16 00:33:26;;;;;;;2.33;2.20;;;21.10;37.30;;;;;;20666;6863;117147;-74
2022/05/16 00:35:52;;;;;;;2.50;2.33;;;21.00;37.20;;;;;;20667;6863;117290;-74
2022/05/16 00:38:17;;;;;;;2.40;2.20;;;20.70;37.50;;;;;;20428;6863;339045;-74
2022/05/16 00:40:43;;;;;;;2.33;2.07;;;20.70;38.10;;;;;;20657;6863;119076;-74
2022/05/16 00:43:09;;;;;;;2.60;2.40;;;20.60;38.00;;;;;;20451;6863;280936;-74
2022/05/16 00:45:35;;;;;;;3.53;2.17;;;20.70;38.10;;;;;;20445;6863;311085;-74
2022/05/16 00:48:00;;;;;;;2.15;2.05;;;21.00;37.90;;;;;;20663;6863;117617;-74
2022/05/16 00:50:26;;;;;;;2.33;2.13;;;20.90;38.00;;;;;;20426;6863;309023;-74
2022/05/16 00:52:52;;;;;;;2.33;1.97;;;20.80;38.90;;;;;;20660;6863;118011;-73
2022/05/16 00:55:21;;;;;;;2.65;2.45;;;20.80;38.90;;;;;;20448;6863;341958;-74
2022/05/16 00:57:50;;;;;;;2.23;2.10;;;20.90;38.80;;;;;;20659;6863;118847;-74
2022/05/16 01:00:16;;;;;;;2.85;2.25;;;20.80;38.80;;;;;;20407;6863;295625;-74
2022/05/16 01:05:27;;;;;;;2.20;2.00;;;20.70;38.80;;;;;;20664;6862;123266;-75
2022/05/16 01:07:53;;;;;;;2.27;2.03;;;20.50;39.60;;;;;;20454;6863;312697;-75
2022/05/16 01:10:19;;;;;;;2.10;2.00;;;20.50;39.60;;;;;;20420;6863;279545;-75
2022/05/16 01:12:45;;;;;;;2.63;2.20;;;20.80;40.60;;;;;;20438;6863;279616;-75
2022/05/16 01:15:13;;;;;;;2.10;1.90;;;21.00;39.60;;;;;;20443;6863;283468;-75
2022/05/16 01:17:39;;;;;;;2.83;2.10;;;21.10;39.20;;;;;;20416;6863;278044;-75
2022/05/16 01:20:04;;;;;;;2.90;2.17;;;21.20;39.70;;;;;;20636;6863;122971;-75
2022/05/16 01:22:37;;;;;;;2.50;2.40;;;21.00;40.10;;;;;;20622;6863;120980;-75
2022/05/16 01:25:02;;;;;;;2.50;2.30;;;20.60;40.80;;;;;;20660;6863;117808;-75
2022/05/16 01:27:28;;;;;;;2.17;1.97;;;20.30;41.40;;;;;;20651;6863;117181;-75
2022/05/16 01:29:53;;;;;;;3.05;2.30;;;20.00;41.90;;;;;;20416;6863;278343;-75
2022/05/16 01:32:19;;;;;;;3.42;2.30;;;20.10;43.10;;;;;;20430;6863;336418;-74
2022/05/16 01:34:45;;;;;;;3.75;2.67;;;20.40;43.10;;;;;;20455;6863;305916;-75
2022/05/16 01:37:10;;;;;;;3.83;2.60;;;20.50;42.50;;;;;;20454;6863;336686;-75
2022/05/16 01:39:36;;;;;;;2.37;2.27;;;20.70;42.20;;;;;;20653;6863;117943;-75
2022/05/16 01:42:01;;;;;;;3.03;2.72;;;20.30;42.00;;;;;;20445;6863;308718;-74
2022/05/16 01:44:27;;;;;;;2.60;2.40;;;20.30;42.00;;;;;;20635;6863;118878;-75
2022/05/16 01:46:52;;;;;;;2.70;2.50;;;20.10;42.10;;;;;;20662;6863;117614;-75
2022/05/16 01:49:19;;;;;;;2.80;2.60;;;19.90;42.90;;;;;;20449;6863;294107;-75
2022/05/16 01:51:44;;;;;;;3.33;2.70;;;19.90;42.90;;;;;;20658;6863;121701;-75
2022/05/16 01:54:10;;;;;;;2.70;2.50;;;19.80;42.60;;;;;;20635;6863;117405;-75
2022/05/16 01:56:35;;;;;;;2.70;2.60;;;19.60;42.80;;;;;;20452;6863;282031;-75
2022/05/16 01:59:03;;;;;;;2.70;2.50;;;19.70;42.90;;;;;;20657;6863;118121;-75
2022/05/16 02:01:29;;;;;;;2.60;2.40;;;19.70;42.90;;;;;;20660;6863;119479;-75
2022/05/16 02:03:54;;;;;;;2.60;2.40;;;19.50;43.00;;;;;;20463;6863;303712;-75
2022/05/16 02:06:20;;;;;;;2.85;2.35;;;19.70;42.90;;;;;;20431;6863;312637;-76
2022/05/16 02:08:50;;;;;;;2.58;2.37;;;20.10;42.10;;;;;;20458;6863;309414;-75
2022/05/16 02:11:15;;;;;;;2.50;2.40;;;20.40;41.50;;;;;;20444;6863;302564;-76
2022/05/16 02:13:41;;;;;;;3.30;2.30;;;20.70;41.70;;;;;;20449;6863;308808;-76
2022/05/16 02:16:08;;;;;;;4.95;2.35;;;20.90;41.10;;;;;;20657;6863;118634;-76
2022/05/16 02:18:33;;;;;;;2.40;2.20;;;20.70;41.00;;;;;;20454;6861;277997;-75
2022/05/16 02:26:30;;;;;;;2.57;2.40;;;20.70;40.40;;;;;;20442;6863;307833;-75
2022/05/16 02:28:57;;;;;;;2.43;2.10;;;21.00;41.00;;;;;;20463;6863;308217;-75
2022/05/16 02:31:23;;;;;;;2.33;2.23;;;21.20;40.10;;;;;;20664;6863;118249;-75
2022/05/16 02:33:49;;;;;;;2.33;2.10;;;20.70;40.60;;;;;;20666;6863;123278;-75
2022/05/16 02:36:15;;;;;;;2.20;2.10;;;20.70;40.60;;;;;;20640;6863;118731;-75
2022/05/16 02:38:40;;;;;;;2.47;2.27;;;20.40;41.10;;;;;;20655;6863;117750;-75
2022/05/16 02:41:07;;;;;;;2.90;2.20;;;20.20;41.60;;;;;;20652;6863;119415;-75
2022/05/16 02:43:31;;;;;;;2.40;2.20;;;20.10;42.10;;;;;;20452;6863;283149;-76
2022/05/16 02:45:57;;;;;;;2.10;2.00;;;20.30;41.80;;;;;;20662;6863;117321;-75
2022/05/16 02:48:24;;;;;;;2.10;2.00;;;20.20;41.40;;;;;;20644;6863;118346;-75
2022/05/16 02:50:50;;;;;;;2.10;2.00;;;20.20;41.70;;;;;;20445;6863;315783;-75
2022/05/16 02:53:16;;;;;;;2.40;2.30;;;20.50;41.60;;;;;;20450;6863;319208;-75
2022/05/16 02:55:41;;;;;;;3.58;2.10;;;20.90;41.30;;;;;;20452;6863;308355;-75
2022/05/16 02:58:09;;;;;;;2.63;2.43;;;21.10;40.20;;;;;;20658;6863;122538;-76
2022/05/16 03:00:36;;;;;;;2.00;1.90;;;21.10;40.20;;;;;;20483;6863;118555;-74
2022/05/16 03:03:01;;;;;;;2.00;1.90;;;20.90;40.70;;;;;;20656;6863;117396;-74
2022/05/16 03:05:27;;;;;;;2.17;2.08;;;20.60;41.60;;;;;;20666;6863;120606;-74
2022/05/16 03:07:53;;;;;;;2.30;2.20;;;20.60;41.50;;;;;;20657;6863;118274;-74
2022/05/16 03:10:18;;;;;;;3.73;2.50;;;20.50;41.70;;;;;;20635;6863;117867;-75
2022/05/16 03:12:45;;;;;;;2.50;2.40;;;20.50;42.00;;;;;;20671;6863;118016;-74
2022/05/16 03:15:12;;;;;;;2.50;2.40;;;20.40;42.20;;;;;;20666;6863;117306;-74
2022/05/16 03:17:38;;;;;;;3.13;2.47;;;20.30;42.20;;;;;;20663;6863;117692;-74
2022/05/16 03:20:04;;;;;;;3.60;2.50;;;20.30;42.20;;;;;;20443;6863;308296;-74
2022/05/16 03:22:29;;;;;;;2.33;2.23;;;20.60;42.30;;;;;;20418;6863;279055;-74
2022/05/16 03:24:55;;;;;;;2.60;2.40;;;21.10;41.60;;;;;;20651;6863;117879;-74
2022/05/16 03:27:20;;;;;;;2.53;2.33;;;21.10;41.60;;;;;;20411;6863;281057;-74
2022/05/16 03:29:49;;;;;;;2.70;2.60;;;21.30;41.20;;;;;;20432;6861;337808;-75
2022/05/16 03:32:13;;;;;;;2.70;2.50;;;21.50;40.80;;;;;;20431;6863;312199;-75
2022/05/16 03:34:38;;;;;;;2.47;2.33;;;21.70;40.60;;;;;;20672;6863;117317;-74
2022/05/16 03:37:04;;;;;;;2.62;2.35;;;21.60;40.80;;;;;;20449;6863;278409;-74
2022/05/16 03:42:15;;;;;;;2.57;2.43;;;21.80;40.30;;;;;;20637;6863;117831;-74
2022/05/16 03:44:40;;;;;;;2.57;2.37;;;21.60;40.80;;;;;;20440;6863;337933;-74
2022/05/16 03:47:06;;;;;;;2.58;2.37;;;21.60;41.90;;;;;;20445;6863;312928;-70
2022/05/16 03:49:33;;;;;;;2.23;2.13;;;21.80;40.30;;;;;;20650;6863;117307;-74
2022/05/16 03:51:59;;;;;;;2.70;2.50;;;21.60;40.40;;;;;;20442;6863;307956;-74
2022/05/16 03:54:24;;;;;;;2.30;2.20;;;21.70;40.00;;;;;;20651;6863;118323;-74
2022/05/16 03:56:49;;;;;;;2.70;2.50;;;21.60;40.30;;;;;;20458;6863;282862;-75
2022/05/16 03:59:15;;;;;;;2.67;2.47;;;21.60;40.30;;;;;;20457;6863;337332;-74
2022/05/16 04:01:40;;;;;;;2.60;2.40;;;21.80;40.50;;;;;;20455;6863;277890;-73
2022/05/16 04:04:06;;;;;;;2.50;2.40;;;21.90;40.20;;;;;;20448;6863;345998;-74
2022/05/16 04:06:34;;;;;;;3.40;2.40;;;22.00;40.50;;;;;;20434;6863;308702;-74
2022/05/16 04:08:59;;;;;;;2.70;2.43;;;22.10;40.30;;;;;;20652;6863;122176;-74
2022/05/16 04:11:23;;;;;;;2.62;2.33;;;21.80;40.20;;;;;;20620;6863;117842;-76
2022/05/16 04:13:48;;;;;;;2.30;2.20;;;21.50;40.60;;;;;;20625;6863;118415;-74
2022/05/16 04:16:14;;;;;;;2.33;2.22;;;21.10;40.90;;;;;;20426;6863;307810;-74
2022/05/16 04:18:40;;;;;;;2.58;2.37;;;21.30;41.40;;;;;;20614;6863;118047;-75
2022/05/16 04:21:05;;;;;;;2.50;2.40;;;21.20;41.20;;;;;;20424;6863;278777;-76
2022/05/16 04:23:30;;;;;;;2.47;2.30;;;21.30;41.50;;;;;;20440;6863;307032;-74
2022/05/16 04:25:56;;;;;;;2.17;2.08;;;21.60;41.60;;;;;;20647;6863;117693;-75
2022/05/16 04:28:22;;;;;;;2.85;2.53;;;21.50;41.50;;;;;;20644;6863;120310;-74
2022/05/16 04:30:47;;;;;;;2.60;2.40;;;21.20;41.80;;;;;;20648;6863;121624;-76
2022/05/16 04:33:13;;;;;;;2.37;2.17;;;20.90;42.10;;;;;;20652;6863;121503;-74
2022/05/16 04:35:38;;;;;;;3.77;2.53;;;20.80;42.50;;;;;;20650;6863;117502;-76
2022/05/16 04:38:04;;;;;;;2.72;2.53;;;20.70;42.90;;;;;;20442;6863;307250;-76
2022/05/16 04:40:31;;;;;;;10.73;3.30;;;20.90;42.90;;;;;;20409;6861;337432;-75
2022/05/16 04:42:56;;;;;;;2.40;2.20;;;21.30;42.80;;;;;;20640;6863;117882;-74
2022/05/16 04:45:25;;;;;;;2.73;2.60;;;21.30;42.50;;;;;;20661;6863;117321;-75
2022/05/16 04:47:54;;;;;;;2.83;2.50;;;21.10;42.70;;;;;;20655;6863;117358;-75
2022/05/16 04:50:19;;;;;;;3.23;2.27;;;20.90;43.00;;;;;;20619;6863;118199;-75
2022/05/16 04:52:45;;;;;;;4.75;2.53;;;20.80;43.50;;;;;;20652;6863;117614;-76
2022/05/16 04:55:10;;;;;;;2.80;2.60;;;20.70;44.90;;;;;;20645;6863;117305;-75
2022/05/16 04:57:36;;;;;;;3.03;2.72;;;20.60;45.00;;;;;;20443;6863;309129;-75
2022/05/16 05:00:03;;;;;;;2.92;2.72;;;20.90;46.60;;;;;;20446;6863;309252;-79
2022/05/16 05:02:29;;;;;;;2.60;2.40;;;21.30;48.70;;;;;;20635;6863;124286;-76
2022/05/16 05:04:54;;;;;;;2.80;2.60;;;21.30;47.80;;;;;;20446;6863;337400;-76
2022/05/16 05:07:20;;;;;;;2.90;2.70;;;21.40;47.00;;;;;;20450;6863;283834;-74
2022/05/16 05:15:17;;;;;;;2.83;2.63;;;21.60;47.80;;;;;;20664;6863;118114;-73
2022/05/16 05:17:43;;;;;;;3.95;3.62;;;21.00;48.30;;;;;;20666;6863;117582;-74
2022/05/16 05:20:13;;;;;;;3.20;3.00;;;21.00;48.30;;;;;;20641;6863;117965;-73
2022/05/16 05:22:34;;;;;;;2.70;2.57;;;20.90;48.60;;;;;;20655;6863;117618;-74
2022/05/16 05:24:59;;;;;;;3.67;2.50;;;20.80;49.20;;;;;;20460;6863;278627;-72
2022/05/16 05:27:25;;;;;;;2.50;2.40;;;21.10;51.80;;;;;;20454;6863;306695;-71
2022/05/16 05:29:52;;;;;;;3.97;2.80;;;21.50;50.60;;;;;;20667;6863;117277;-71
2022/05/16 05:32:17;;;;;;;3.17;2.75;;;21.20;49.20;;;;;;20649;6863;117631;-72
2022/05/16 05:34:42;;;;;;;2.43;2.33;;;21.10;49.10;;;;;;20666;6863;117902;-70
2022/05/16 05:37:08;;;;;;;2.90;2.80;;;21.00;49.30;;;;;;20665;6863;117195;-71
2022/05/16 05:39:35;;;;;;;3.00;2.80;;;20.80;49.20;;;;;;20664;6863;117120;-71
2022/05/16 05:41:59;;;;;;;2.73;2.63;;;20.70;48.80;;;;;;20656;6863;117333;-70
2022/05/16 05:44:25;;;;;;;3.03;2.70;;;20.70;48.60;;;;;;20420;6863;309624;-72
2022/05/16 05:46:50;;;;;;;2.55;2.45;;;21.00;48.00;;;;;;20672;6863;124552;-72
2022/05/16 05:49:19;;;;;;;3.22;2.92;;;21.00;47.70;;;;;;20455;6863;278279;-72
2022/05/16 05:51:43;;;;;;;3.00;2.80;;;21.30;47.20;;;;;;20449;6861;336691;-72
2022/05/16 05:54:08;;;;;;;2.92;2.72;;;21.60;46.80;;;;;;20427;6863;307381;-71
2022/05/16 05:56:34;;;;;;;3.17;2.97;;;21.80;46.60;;;;;;20451;6863;282763;-72
2022/05/16 05:58:59;;;;;;;2.70;2.60;;;22.00;46.60;;;;;;20450;6863;307946;-73
2022/05/16 06:01:25;;;;;;;3.03;2.60;;;22.10;46.40;;;;;;20664;6863;117876;-71
2022/05/16 06:03:51;;;;;;;2.97;2.78;;;21.90;46.30;;;;;;20451;6863;306835;-71
2022/05/16 06:06:16;;;;;;;3.00;2.80;;;22.00;46.40;;;;;;20651;6863;129831;-71
2022/05/16 06:08:42;;;;;;;2.85;2.65;;;21.80;46.10;;;;;;20457;6863;282057;-71
2022/05/16 06:11:07;;;;;;;3.40;2.70;;;21.90;46.20;;;;;;20644;6863;123265;-72
2022/05/16 06:13:33;;;;;;;2.90;2.70;;;21.90;46.60;;;;;;20453;6863;307479;-71
2022/05/16 06:15:58;;;;;;;2.70;2.50;;;22.00;47.90;;;;;;20662;6863;117377;-71
2022/05/16 06:18:24;;;;;;;2.80;2.70;;;21.90;47.50;;;;;;20648;6863;117468;-72
2022/05/16 06:20:49;;;;;;;3.03;2.78;;;21.70;47.40;;;;;;20453;6863;307369;-72
2022/05/16 06:23:15;;;;;;;2.50;2.40;;;21.80;46.20;;;;;;20670;6863;117595;-71
2022/05/16 06:25:43;;;;;;;3.30;3.10;;;21.80;46.00;;;;;;20467;6863;279395;-72
2022/05/16 06:28:06;;;;;;;3.13;2.83;;;22.00;45.60;;;;;;20664;6863;117763;-72
2022/05/16 06:30:32;;;;;;;3.00;2.80;;;22.00;45.60;;;;;;20584;6859;124542;-72
2022/05/16 06:32:57;;;;;;;3.05;2.85;;;21.90;45.90;;;;;;20458;6859;300703;-72
2022/05/16 06:35:23;;;;;;;2.90;2.70;;;22.20;46.40;;;;;;20680;6859;117730;-72
2022/05/16 06:37:48;;;;;;;3.03;2.67;;;22.20;46.00;;;;;;20655;6863;117793;-72
2022/05/16 06:40:14;;;;;;;3.20;2.95;;;22.10;46.10;;;;;;20424;6863;308252;-71
2022/05/16 06:42:40;;;;;;;3.43;3.13;;;22.30;45.90;;;;;;20438;6863;307528;-72
2022/05/16 06:45:05;;;;;;;3.30;3.10;;;22.60;45.20;;;;;;20442;6863;325711;-72
2022/05/16 06:47:31;;;;;;;4.00;3.30;;;22.90;44.80;;;;;;20441;6863;278018;-72
2022/05/16 06:49:56;;;;;;;3.50;3.20;;;23.10;45.40;;;;;;20447;6863;341361;-72
2022/05/16 06:52:24;;;;;;;3.20;3.00;;;23.30;44.30;;;;;;20437;6863;278801;-72
2022/05/16 06:54:49;;;;;;;3.87;3.30;;;23.50;44.50;;;;;;20452;6863;278095;-72
2022/05/16 06:57:15;;;;;;;3.35;3.08;;;23.60;43.60;;;;;;20454;6863;278658;-71
2022/05/16 06:59:40;;;;;;;3.10;2.90;;;23.80;43.10;;;;;;20667;6863;123264;-72
2022/05/16 07:02:05;;;;;;;3.60;3.30;;;23.90;44.00;;;;;;20452;6863;282877;-72
2022/05/16 07:04:31;;;;;;;3.17;2.97;;;24.20;43.90;;;;;;20435;6861;307523;-72
2022/05/16 07:06:57;;;;;;;3.37;3.10;;;24.80;43.30;;;;;;20454;6863;278400;-72
2022/05/16 07:09:22;;;;;;;2.92;2.72;;;25.30;42.70;;;;;;20672;6863;117140;-72
2022/05/16 07:11:48;;;;;;;3.07;2.80;;;25.50;42.60;;;;;;20456;6863;277727;-72
2022/05/16 07:14:13;;;;;;;3.33;3.10;;;25.80;43.10;;;;;;20652;6863;117645;-72
2022/05/16 07:16:39;;;;;;;2.83;2.62;;;26.00;42.60;;;;;;20664;6863;117346;-72
2022/05/16 07:19:04;;;;;;;3.85;3.17;;;26.10;42.70;;;;;;20457;6863;278195;-72
2022/05/16 07:21:30;;;;;;;3.35;3.15;;;26.40;42.50;;;;;;20460;6863;278371;-72
2022/05/16 07:23:56;;;;;;;3.17;2.97;;;26.80;42.00;;;;;;20450;6863;305440;-72
2022/05/16 07:29:07;;;;;;;3.37;3.08;;;27.60;40.90;;;;;;20451;6863;336228;-71
2022/05/16 07:31:32;;;;;;;2.97;2.60;;;27.80;39.80;;;;;;20666;6863;117142;-72
2022/05/16 07:33:58;;;;;;;2.90;2.80;;;27.80;40.30;;;;;;20674;6863;117241;-71
2022/05/16 07:36:23;;;;;;;3.27;3.00;;;27.60;40.80;;;;;;20645;6863;118362;-71
2022/05/16 07:38:50;;;;;;;3.10;2.90;;;27.50;41.40;;;;;;20669;6863;117400;-72
2022/05/16 07:41:15;;;;;;;3.10;2.90;;;27.60;41.00;;;;;;20448;6863;307241;-72
2022/05/16 07:43:42;;;;;;;3.15;2.90;;;27.60;41.10;;;;;;20455;6863;337403;-72
2022/05/16 07:46:09;;;;;;;2.87;2.60;;;28.30;41.40;;;;;;20656;6863;122994;-71
2022/05/16 07:48:34;;;;;;;3.33;3.12;;;28.20;40.80;;;;;;20459;6863;307724;-72
2022/05/16 07:51:00;;;;;;;3.17;2.97;;;28.50;38.50;;;;;;20456;6863;307448;-72
2022/05/16 07:53:25;;;;;;;2.77;2.67;;;28.90;40.10;;;;;;20456;6863;336365;-72
2022/05/16 07:55:51;;;;;;;3.30;3.10;;;29.10;39.50;;;;;;20674;6863;117612;-72
2022/05/16 07:58:16;;;;;;;3.43;3.23;;;29.10;39.50;;;;;;20436;6863;308424;-72
2022/05/16 08:00:42;;;;;;;3.20;3.00;;;29.30;39.00;;;;;;20673;6863;118187;-72
2022/05/16 08:03:11;;;;;;;3.00;2.80;;;29.20;38.20;;;;;;20456;6863;307298;-72
2022/05/16 08:05:36;;;;;;;2.90;2.80;;;29.40;39.50;;;;;;20659;6863;117124;-72
2022/05/16 08:10:47;;;;;;;3.17;2.93;;;29.30;39.30;;;;;;20668;6863;117381;-72
2022/05/16 08:13:13;;;;;;;3.93;2.90;;;29.20;39.40;;;;;;20665;6863;117349;-72
2022/05/16 08:15:38;;;;;;;3.25;3.05;;;29.10;39.10;;;;;;20459;6862;277974;-72
2022/05/16 08:18:06;;;;;;;3.50;3.20;;;29.30;37.90;;;;;;20667;6863;121801;-72
2022/05/16 08:20:32;;;;;;;3.30;3.00;;;29.40;38.40;;;;;;20646;6863;123205;-72
2022/05/16 08:22:57;;;;;;;2.97;2.80;;;29.30;38.50;;;;;;20665;6863;117720;-72
2022/05/16 08:25:24;;;;;;;3.53;3.00;;;29.50;37.20;;;;;;20454;6863;307409;-72
2022/05/16 08:27:50;;;;;;;3.00;2.90;;;29.40;37.70;;;;;;20667;6863;117203;-72
2022/05/16 08:30:16;;;;;;;3.73;2.90;;;29.40;37.70;;;;;;20648;6863;117297;-71
2022/05/16 08:32:42;;;;;;;2.90;2.70;;;29.20;38.50;;;;;;20451;6863;336899;-71
2022/05/16 08:35:07;;;;;;;3.33;3.03;;;29.40;38.30;;;;;;20665;6863;117179;-71
2022/05/16 08:40:19;;;;;;;2.90;2.70;;;29.40;36.40;;;;;;20662;6863;118906;-71
2022/05/16 08:42:48;;;;;;;4.60;2.90;;;29.20;37.60;;;;;;20669;6863;117331;-70
2022/05/16 08:45:31;;;;;;;4.15;2.97;;;29.00;38.40;;;;;;20460;6863;312111;-70
2022/05/16 08:48:07;;;;;;;2.87;2.67;;;29.10;38.10;;;;;;20665;6863;117399;-69
2022/05/16 08:50:33;;;;;;;5.07;2.47;;;28.70;38.40;;;;;;20637;6863;118050;-69
2022/05/16 08:53:02;;;;;;;3.28;2.87;;;28.60;37.70;;;;;;20453;6863;337188;-69
2022/05/16 08:55:44;;;;;;;2.63;2.53;;;28.70;37.90;;;;;;20657;6863;117355;-69
2022/05/16 08:58:12;;;;;;;3.90;2.80;;;28.70;38.10;;;;;;20427;6863;337010;-69
2022/05/16 09:00:41;;;;;;;2.80;2.55;;;28.80;37.80;;;;;;20381;6878;342521;-70
2022/05/16 09:03:03;;;;;;;3.00;2.63;;;29.00;37.50;;;;;;20616;6878;124681;-70
2022/05/16 09:05:29;;;;;;;3.12;2.83;;;29.00;37.20;;;;;;20398;6878;324949;-70
2022/05/16 09:07:54;;;;;;;3.03;2.70;;;29.10;38.20;;;;;;20618;6880;118190;-70
2022/05/16 09:10:24;;;;;;;3.23;3.03;;;29.00;37.90;;;;;;20609;6880;118406;-70
2022/05/16 09:13:12;;;;;;;3.10;2.80;;;28.70;38.00;;;;;;20410;6883;279796;-70
2022/05/16 09:15:54;;;;;;;2.60;2.50;;;28.80;39.60;;;;;;20667;6866;118885;-70
2022/05/16 09:18:34;;;;;;;2.83;2.70;;;29.10;38.90;;;;;;20437;6866;339614;-71
2022/05/16 09:21:14;;;;;;;2.97;2.80;;;29.10;38.80;;;;;;20647;6866;117223;-71
2022/05/16 09:24:04;;;;;;;4.07;3.00;;;29.40;38.20;;;;;;20409;6866;307862;-71
2022/05/16 09:26:40;;;;;;;3.30;3.00;;;29.40;38.20;;;;;;20399;6869;307111;-71
2022/05/16 09:29:12;;;;;;;3.40;2.80;;;29.90;37.40;;;;;;20637;6869;117523;-70
2022/05/16 09:31:43;;;;;;;3.90;2.87;;;30.00;37.60;;;;;;20614;6868;118295;-71
2022/05/16 09:34:09;;;;;;;3.72;3.10;;;29.80;37.90;;;;;;20366;6883;309142;-71
2022/05/16 09:36:39;;;;;;;3.27;2.90;;;29.90;36.60;;;;;;20675;6857;117958;-71
2022/05/16 09:39:05;;;;;;;3.40;3.07;;;29.80;37.10;;;;;;20673;6857;117434;-71
2022/05/16 09:41:37;;;;;;;3.42;3.12;;;29.50;37.70;;;;;;20459;6857;307974;-71
2022/05/16 09:44:06;;;;;;;3.92;3.00;;;29.50;38.20;;;;;;20439;6864;341987;-71
2022/05/16 09:46:38;;;;;;;3.20;3.00;;;29.70;37.90;;;;;;20349;6877;309185;-71
2022/05/16 09:49:03;;;;;;;4.13;3.80;;;29.90;36.60;;;;;;20686;6859;116489;-71
2022/05/16 09:51:30;;;;;;;3.73;3.43;;;29.60;36.50;;;;;;20435;6873;308369;-71
2022/05/16 09:53:54;;;;;;;3.10;2.90;;;29.60;37.60;;;;;;20480;6855;335706;-71
2022/05/16 09:56:20;;;;;;;3.30;3.10;;;29.80;37.90;;;;;;20598;6870;118000;-71
2022/05/16 09:58:45;;;;;;;3.10;2.90;;;29.70;37.50;;;;;;20596;6855;117492;-71
2022/05/16 10:01:11;;;;;;;4.47;3.13;;;29.40;37.90;;;;;;20690;6855;117197;-71
2022/05/16 10:03:47;;;;;;;3.60;3.30;;;29.30;38.10;;;;;;20701;6855;117302;-70
2022/05/16 10:06:30;;;;;;;3.47;3.17;;;29.00;39.10;;;;;;20683;6855;117776;-71
2022/05/16 10:08:56;;;;;;;4.20;3.70;;;29.00;38.40;;;;;;20700;6855;117309;-70
2022/05/16 10:11:22;;;;;;;6.83;3.90;;;28.40;38.00;;;;;;20682;6855;117408;-70
2022/05/16 10:13:48;;;;;;;7.20;4.30;;;28.40;38.00;;;;;;20468;6855;307991;-70
2022/05/16 10:16:13;;;;;;;5.43;4.20;;;28.40;36.60;;;;;;20679;6854;117938;-71
2022/05/16 10:18:42;;;;;;;4.13;3.67;;;28.30;37.00;;;;;;20710;6854;121341;-70
2022/05/16 10:21:08;;;;;;;4.13;3.60;;;28.00;37.20;;;;;;20661;6869;117869;-70
2022/05/16 10:23:33;;;;;;;5.43;3.93;;;27.70;37.90;;;;;;20657;6869;116380;-70
2022/05/16 10:25:59;;;;;;;4.27;3.87;;;27.50;37.30;;;;;;20634;6869;117170;-71
2022/05/16 10:28:24;;;;;;;5.60;4.07;;;27.40;37.60;;;;;;20609;6869;118202;-71
2022/05/16 10:33:36;;;;;;;5.57;4.43;;;27.30;38.20;;;;;;20648;6869;117462;-73
2022/05/16 10:36:06;;;;;;;4.83;4.13;;;27.40;38.60;;;;;;20473;6854;283013;-71
2022/05/16 10:38:52;;;;;;;4.60;4.10;;;27.60;37.90;;;;;;20377;6854;292424;-72
2022/05/16 10:41:35;;;;;;;5.73;3.80;;;27.90;37.60;;;;;;20645;6868;117411;-76
2022/05/16 10:44:01;;;;;;;5.07;4.03;;;27.90;37.00;;;;;;20424;6868;308599;-73
2022/05/16 10:46:26;;;;;;;4.13;3.80;;;27.90;36.90;;;;;;20401;6868;279232;-73
2022/05/16 10:48:51;;;;;;;4.07;3.70;;;28.00;37.00;;;;;;20414;6869;311719;-75
2022/05/16 10:51:26;;;;;;;4.43;4.07;;;28.10;37.30;;;;;;20606;6884;118652;-73
2022/05/16 10:54:05;;;;;;;4.10;3.80;;;27.80;37.40;;;;;;20596;6884;117488;-75
2022/05/16 10:57:04;;;;;;;7.03;3.90;;;27.40;38.70;;;;;;20561;6884;117733;-76
2022/05/16 10:59:50;;;;;;;4.33;3.90;;;27.10;38.60;;;;;;20620;6879;118008;-74
2022/05/16 11:02:34;;;;;;;5.60;3.90;;;26.80;38.80;;;;;;19596;7214;126203;-73
2022/05/16 11:05:17;;;;;;;5.03;4.00;;;26.50;39.20;;;;;;19335;7234;327017;-73
2022/05/16 11:07:42;;;;;;;5.20;3.90;;;26.80;39.10;;;;;;19815;6886;119883;-74
2022/05/16 11:10:08;;;;;;;5.20;3.40;;;26.60;39.10;;;;;;20593;6872;117840;-74
2022/05/16 11:12:53;;;;;;;5.33;3.87;;;26.40;39.30;;;;;;20590;6872;118435;-72
2022/05/16 11:15:39;;;;;;;4.37;3.55;;;26.20;39.70;;;;;;20423;6872;307328;-73
2022/05/16 11:18:11;;;;;;;6.87;3.07;;;26.30;39.50;;;;;;20603;6872;118342;-74
2022/05/16 11:20:37;;;;;;;5.00;2.70;;;26.20;39.30;;;;;;20570;6887;117700;-74
2022/05/16 11:23:02;;;;;;;5.30;2.90;;;25.90;39.30;;;;;;20412;6872;312205;-73
2022/05/16 11:25:44;;;;;;;6.43;2.90;;;25.90;39.10;;;;;;20405;6872;293740;-75
2022/05/16 11:28:11;;;;;;;7.07;3.30;;;26.10;38.90;;;;;;20430;6872;321861;-79
2022/05/16 11:30:43;;;;;;;9.20;3.40;;;26.20;39.10;;;;;;20455;6872;117991;-76
2022/05/16 11:33:28;;;;;;;6.70;3.43;;;25.80;40.00;;;;;;20633;6872;117440;-75
2022/05/16 11:35:54;;;;;;;6.67;3.20;;;25.30;42.00;;;;;;20634;6872;117268;-76
2022/05/16 11:38:53;;;;;;;3.10;2.87;;;24.70;43.00;;;;;;20569;6882;118768;-77
2022/05/16 11:41:48;;;;;;;4.07;3.07;;;24.30;43.50;;;;;;20437;6867;278400;-75
2022/05/16 11:44:28;;;;;;;11.33;4.27;;;24.30;46.10;;;;;;20641;6865;117829;-71
2022/05/16 11:47:12;;;;;;;4.50;3.37;;;24.00;46.30;;;;;;20432;6865;308148;-72
2022/05/16 11:49:51;;;;;;;3.60;2.87;;;23.90;48.90;;;;;;20442;6865;308566;-72
2022/05/16 11:52:40;;;;;;;2.90;2.70;;;23.80;47.70;;;;;;20637;6863;117363;-73
2022/05/16 12:00:31;;;;;;;4.50;3.20;;;23.30;47.70;;;;;;20420;6863;312340;-72
2022/05/16 12:00:33;;;;;;;5.20;3.80;;;23.00;51.40;;;;;;20393;6877;285401;-72
2022/05/16 12:03:06;;;;;;;5.97;3.72;;;23.20;51.60;;;;;;20411;6877;311917;-73
2022/05/16 12:05:39;;;;;;;3.30;3.00;;;22.90;51.30;;;;;;20590;6877;117675;-73
2022/05/16 12:08:32;;;;;;;4.07;3.00;;;22.90;51.30;;;;;;20613;6877;117253;-72
2022/05/16 12:11:03;;;;;;;5.12;3.40;;;22.60;51.60;;;;;;20327;6897;309194;-72
2022/05/16 12:13:28;;;;;;;4.80;3.60;;;22.80;53.50;;;;;;20564;6897;118260;-72
2022/05/16 12:16:14;;;;;;;4.85;3.40;;;22.50;52.30;;;;;;20604;6882;117276;-72
2022/05/16 12:18:50;;;;;;;4.43;3.20;;;22.50;52.30;;;;;;20618;6874;117524;-72
2022/05/16 12:21:19;;;;;;;5.17;3.43;;;22.40;52.20;;;;;;20347;6881;308361;-72
2022/05/16 12:23:45;;;;;;;6.17;3.67;;;22.60;53.30;;;;;;20624;6876;118243;-72
2022/05/16 12:26:10;;;;;;;4.17;3.57;;;22.70;53.30;;;;;;20600;6876;118176;-73
2022/05/16 12:28:35;;;;;;;4.87;3.43;;;22.70;53.50;;;;;;20370;6892;300140;-73
2022/05/16 12:31:04;;;;;;;5.23;3.40;;;23.10;54.20;;;;;;20622;6877;117879;-72
2022/05/16 12:33:44;;;;;;;4.37;3.97;;;23.10;54.20;;;;;;20370;6892;307720;-72
2022/05/16 12:36:16;;;;;;;4.78;4.10;;;23.50;56.20;;;;;;20401;6874;279384;-74
2022/05/16 12:38:41;;;;;;;4.83;3.90;;;24.00;55.80;;;;;;20392;6874;308517;-72
2022/05/16 12:41:10;;;;;;;4.47;3.95;;;24.40;54.40;;;;;;20630;6874;118235;-72
2022/05/16 12:44:04;;;;;;;7.53;4.50;;;24.50;53.60;;;;;;20416;6874;291811;-72
2022/05/16 12:46:48;;;;;;;7.33;3.87;;;24.70;54.60;;;;;;20607;6874;118591;-72
2022/05/16 12:49:33;;;;;;;5.07;4.00;;;24.80;53.10;;;;;;20603;6874;120989;-74
2022/05/16 12:52:09;;;;;;;5.10;3.83;;;24.60;52.60;;;;;;20629;6874;117150;-74
2022/05/16 12:54:47;;;;;;;5.23;3.97;;;24.50;52.60;;;;;;20598;6874;122502;-73
2022/05/16 12:57:33;;;;;;;4.37;3.97;;;24.50;52.50;;;;;;20629;6874;123141;-74
2022/05/16 13:00:09;;;;;;;4.80;4.10;;;24.40;52.50;;;;;;20418;6876;312578;-74
2022/05/16 13:02:41;;;;;;;4.30;3.90;;;24.70;52.40;;;;;;20381;6874;312679;-78
2022/05/16 13:05:23;;;;;;;3.97;3.70;;;25.10;52.20;;;;;;20570;6890;117670;-75
2022/05/16 13:08:10;;;;;;;6.00;3.47;;;25.00;52.00;;;;;;20555;6890;117919;-75
2022/05/16 13:10:48;;;;;;;4.20;3.90;;;25.00;52.00;;;;;;20365;6875;313522;-75
2022/05/16 13:13:38;;;;;;;5.33;4.10;;;25.20;52.20;;;;;;20409;6875;307291;-75